NWS Home NWS Lubbock West Texas Mesonet North Sector Latest Conditions as of 0101 PM, Fri Mar 05, 2021

Latest   N   C   S   Daily Sum   3hrΔ   24hrΔ   Soil Data 
Site Map   24hr Precip   72hr Precip   Google Plot


Station Time of Last Temp Dew Pt. RH Wind Direction Wind Speed Wind Gust Max Wind Max Temp Min Temp Max RH Min RH Altimeter 1HR Rain Today's Rain Solar Rad Red Flag
Adrian 6WSW  12:55 PM 46 39 77% NE2427 41 mph 357° @ 0716 AM 47 41 89 59 30.30" 0 0.00 91  
Aiken 3WSW  12:55 PM 50 37 61% N3236 43 mph 13° @ 1153 AM 53 41 83 38 30.23" 0 0.00 253  
Amarillo 15NNW   12:55 PM 50 40 67% N2025 37 mph 343° @ 0531 AM 52 38 87 52 30.27" 0 0.00 85  
Amarillo 7SSE  12:55 PM 44 44 100% N1517 37 mph 339° @ 0600 AM 48 41 100 47 30.28" 0 0.00 261  
Amarillo 9NNE  12:55 PM 49 41 75% N1519 40 mph 343° @ 0559 AM 49 40 94 53 30.27" 0 0.00 92  
Amherst 1NE  12:55 PM 53 39 61% N2633 48 mph 341° @ 0905 AM 53 41 80 35 30.24" 0 0.00 608  
Bootleg 11WNW  12:55 PM 46 38 72% N2427 41 mph 356° @ 1025 AM 49 39 87 48 30.31" 0 0.00 124  
Borger 7E  12:55 PM 52 41 65% NE2327 38 mph 34° @ 0951 AM 52 38 96 51 30.25" 0 0.00 468  
Boys Ranch 1WSW  12:55 PM 49 42 76% N1316 35 mph 3° @ 0531 AM 50 41 91 57 30.30" 0 0.00 117  
Canadian 6E  12:55 PM 50 45 81% N1822 33 mph 23° @ 0909 AM 54 40 100 59 30.21" 0 0.03 198  
Caprock Canyons State Park  12:50 PM 52 38 59% NE1928 35 mph 35° @ 1150 AM 54 47 79 29 30.20" 0 0.00 260  
Childress 2NNE  12:55 PM 53 41 64% N2431 39 mph 7° @ 1210 PM 60 41 80 31 30.16" 0 0.00 226  
Clarendon 2WSW  12:55 PM 49 39 70% N2328 45 mph 14° @ 1055 AM 52 41 87 44 30.21" 0 0.00 155  
Claude 12SW  12:55 PM 46 40 81% N2124 42 mph 353° @ 1032 AM 48 40 100 48 30.24" 0 0.00 155  
Dimmitt 2NE  12:55 PM 48 39 71% N2430 44 mph 341° @ 0740 AM 49 37 93 45 30.25" 0 0.00 157  
Dozier 3W  12:55 PM 47 45 91% NE1517 35 mph 20° @ 1125 AM 52 42 100 41 30.21" 0 0.01 62  
Earth 9WSW  12:55 PM 51 39 64% N2733 46 mph 343° @ 0856 AM 52 36 80 43 30.26" 0 0.00 268  
Endee NM 2SW  12:55 PM 49 39 69% NE1821 38 mph 8° @ 1030 AM 51 40 78 54 30.31" 0 0.00 278  
Estelline 3SSE  12:55 PM 54 41 59% N2227 33 mph 346° @ 1104 AM 57 43 86 32 30.18" 0 0.00 533  
Floydada 2NNE  12:55 PM 52 36 56% N2938 40 mph 6° @ 1220 PM 53 41 77 33 30.19" 0 0.00 216  
Friona 2NE  12:55 PM 47 38 72% N2631 48 mph 348° @ 0805 AM 48 33 86 49 30.28" 0 0.00 140  
Fritch 1WNW  12:55 PM 51 39 63% NE2127 34 mph 34° @ 1250 PM 52 41 94 55 30.25" 0 0.00 318  
Goodlett 3W  12:55 PM 55 42 63% N2834 39 mph 9° @ 1005 AM 60 43 79 30 30.13" 0 0.00 463  
Goodnight  12:55 PM 50 40 69% N2024 43 mph 13° @ 1130 AM 51 40 94 50 30.24" 0 0.00 240  
Happy 1E  12:55 PM 46 40 78% NE2628 42 mph 346° @ 0724 AM 50 41 91 47 30.26" 0 0.00 135  
Hart 3N  12:55 PM 49 39 70% N2530 45 mph 336° @ 0805 AM 50 39 89 47 30.25" 0 0.00 279  
Hereford 2NW  12:55 PM 46 39 79% N2329 39 mph 346° @ 0700 AM 48 38 95 58 30.27" 0 0.01 40  
Lake McClellan 2NW  12:55 PM 47 40 75% N2730 45 mph 19° @ 1102 AM 51 37 96 48 30.22" 0 0.00 53  
Lesley 2S  12:55 PM 55 40 57% N2835 42 mph 359° @ 1043 AM 58 43 78 40 30.20" 0 0.00 129  
McLean 1E  12:55 PM 49 41 75% N1929 37 mph 18° @ 1225 PM 49 36 92 54 30.18" 0 0.00 179  
Memphis 1NE  12:55 PM 53 42 65% N2734 37 mph 9° @ 1228 PM 57 42 90 37 30.20" 0 0.00 236  
Muleshoe 2SSW  12:55 PM 48 40 74% N2128 39 mph 358° @ 0935 AM 51 35 80 44 30.27" 0 0.00 105  
Northfield 1S  12:55 PM 54 40 59% N2129 33 mph 13° @ 1205 PM 55 47 89 30 30.17" 0 0.00 204  
Odell 4ENE  12:55 PM 52 44 74% N2530 38 mph 9° @ 1236 PM 57 43 91 40 30.12" 0 0.00 75  
Olton 6S  12:55 PM 51 38 62% N3038 41 mph 347° @ 0925 AM 51 40 83 33 30.23" 0 0.00 367  
Palo Duro 4E (JA Ranch)  12:55 PM 52 39 63% N2023 40 mph 17° @ 1207 PM 56 43 83 41 30.23" 0 0.00 119  
Palo Duro Canyon SP Floor  12:55 PM 50 40 69% NW711 31 mph 334° @ 1025 AM 52 43 85 41 30.26" 0 0.00 86  
Palo Duro Canyon State Park Rim  12:55 PM 46 39 75% N1520 39 mph 348° @ 0658 AM 49 40 92 44 30.27" 0 0.00 112  
Palo Duro Reservoir 1NW   12:55 PM 53 41 64% N1822 35 mph 301° @ 1205 AM 56 36 96 60 30.26" 0 0.07 89  
Pampa 2E  12:55 PM 48 41 80% N2532 39 mph 20° @ 1025 AM 48 34 98 58 30.22" 0 0.00 362  
Panhandle 1SSW  12:55 PM 47 42 80% N1619 36 mph 18° @ 1043 AM 47 38 100 53 30.25" 0 0.01 191  
Plainview 1S  12:55 PM 50 37 62% N2028 43 mph 4° @ 1152 AM 52 42 79 34 30.22" 0 0.00 283  
Romero 11SSW  12:55 PM 49 40 70% NE1923 44 mph 344° @ 0444 AM 49 42 91 54 30.31" 0 0.00 298  
Silverton 7ESE  12:55 PM 51 37 61% N2935 38 mph 18° @ 1140 AM 51 41 90 40 30.20" 0 0.00 171  
South Plains 3ENE  12:55 PM 51 37 59% N2629 40 mph 360° @ 1125 AM 53 41 87 37 30.20" 0 0.00 204  
Stinnett 1NNW  12:55 PM 54 39 56% NE2531 37 mph 20° @ 0911 AM 54 36 100 56 30.26" 0 0.00 467  
Stratford 4WNW  12:55 PM 48 43 81% N1416 42 mph 356° @ 0251 AM 49 41 96 68 30.30" 0 0.04 131  
Tulia 2ENE  12:55 PM 47 38 71% N2026 44 mph 341° @ 0755 AM 49 41 86 39 30.24" 0 0.00 134  
Turkey 2WSW  12:55 PM 55 39 55% N2634 40 mph 349° @ 1220 PM 55 45 76 32 30.18" 0 0.00 399  
Umbarger 3NNE  12:55 PM 46 41 85% N2528 38 mph 340° @ 0555 AM 49 38 94 53 30.28" 0 0.00 152  
Vega 4E  12:55 PM 45 41 86% NE1823 45 mph 353° @ 0734 AM 45 41 96 61 30.29" 0 0.01 105  
Vigo Park  12:55 PM 47 39 74% N1824 39 mph 16° @ 1137 AM 51 38 100 43 30.24" 0 0.00 118  
Wellington 6SE  12:55 PM 52 40 64% N2327 42 mph 20° @ 1103 AM 53 42 83 40 30.17" 0 0.00 236  

West Texas Mesonet Home   Site Map/Menu  NWS Lubbock Soil Data  Daily Summary Page  24hr Precip  72hr Precip  Google Plot